METAR Data
IDs: Format: Raw Decoded Include TAF

Data at: 0231 UTC 24 Jun 2021

METAR for:KHCR (Heber City Muni, UT, US)
Text:KHCR 240215Z AUTO 20005KT 10SM SCT100 SCT120 27/M01 A3002 RMK AO2
Temperature: 27.0°C ( 81°F)
Dewpoint: -1.0°C ( 30°F) [RH = 16%]
Pressure (altimeter):30.02 inches Hg (1016.7 mb)
Winds:from the SSW (200 degrees) at 6 MPH (5 knots; 2.6 m/s)
Visibility:10 or more sm (16+ km)
Ceiling:at least 12,000 feet AGL
Clouds: scattered clouds at 10000 feet AGL, scattered clouds at 12000 feet AGL
QC Flag:automated observation with no human augmentation